createdAt,value
2022-12-13T00:00:58.359Z,4.88
2022-12-13T00:03:01.609Z,5.32
2022-12-13T00:05:03.712Z,5.07
2022-12-13T00:07:05.252Z,4.65
2022-12-13T00:09:08.751Z,4.85
2022-12-13T00:11:12.755Z,4.57
2022-12-13T00:13:14.225Z,5.20
2022-12-13T00:15:16.217Z,5.25
2022-12-13T00:17:18.761Z,4.20
2022-12-13T00:19:21.835Z,5.22
2022-12-13T00:21:26.526Z,4.15
2022-12-13T00:23:28.693Z,5.15
2022-12-13T00:25:30.316Z,4.18
2022-12-13T00:27:31.827Z,4.78
2022-12-13T00:29:33.853Z,4.85
2022-12-13T00:33:57.293Z,4.18
2022-12-13T00:36:03.526Z,5.55
2022-12-13T00:38:05.207Z,4.85
2022-12-13T00:40:08.214Z,5.65
2022-12-13T00:42:09.949Z,5.60
2022-12-13T00:46:15.438Z,5.50
2022-12-13T00:48:17.024Z,5.18
2022-12-13T00:50:18.679Z,5.88
2022-12-13T00:52:21.549Z,5.22
2022-12-13T00:54:26.481Z,5.25
2022-12-13T00:56:30.395Z,4.80
2022-12-13T00:58:31.910Z,5.25
2022-12-13T01:00:33.522Z,5.30
2022-12-13T01:02:35.679Z,6.22
2022-12-13T01:04:39.140Z,5.82
2022-12-13T01:06:42.683Z,5.57
2022-12-13T01:08:46.679Z,5.47
2022-12-13T01:10:48.239Z,5.38
2022-12-13T01:12:49.901Z,5.45
2022-12-13T01:14:55.902Z,4.95
2022-12-13T01:16:57.909Z,5.18
2022-12-13T01:18:59.537Z,6.47
2022-12-13T01:21:02.957Z,5.53
2022-12-13T01:23:04.566Z,5.80
2022-12-13T01:25:08.981Z,5.38
2022-12-13T01:27:10.653Z,6.05
2022-12-13T01:29:12.209Z,6.43
2022-12-13T01:31:16.171Z,6.10
2022-12-13T01:33:17.927Z,6.28
2022-12-13T01:35:19.469Z,6.55
2022-12-13T01:37:21.026Z,5.88
2022-12-13T01:39:28.029Z,6.72
2022-12-13T01:43:50.859Z,6.13
2022-12-13T01:45:52.591Z,6.68
2022-12-13T01:47:58.168Z,6.50
2022-12-13T01:50:06.391Z,6.60
2022-12-13T01:54:21.136Z,5.63
2022-12-13T01:56:29.518Z,5.55
2022-12-13T01:58:33.995Z,6.47
2022-12-13T02:00:36.174Z,5.00
2022-12-13T02:02:38.837Z,5.70
2022-12-13T02:04:48.683Z,5.07
2022-12-13T02:06:50.568Z,5.65
2022-12-13T02:10:53.738Z,5.88
2022-12-13T02:15:00.728Z,5.40
2022-12-13T02:17:13.229Z,6.20
2022-12-13T02:19:49.250Z,6.20
2022-12-13T02:22:04.698Z,6.95
2022-12-13T02:24:29.306Z,7.30
2022-12-13T02:27:03.343Z,7.45
2022-12-13T02:29:30.695Z,7.85
2022-12-13T02:31:43.961Z,6.80
2022-12-13T02:33:52.555Z,7.13
2022-12-13T02:36:05.587Z,7.10
2022-12-13T02:38:13.830Z,8.10
2022-12-13T02:42:26.197Z,7.47
2022-12-13T02:44:34.429Z,7.10
2022-12-13T02:48:42.747Z,7.07
2022-12-13T02:50:46.187Z,7.70
2022-12-13T02:52:49.816Z,8.00
2022-12-13T02:54:53.462Z,6.53
2022-12-13T02:56:55.704Z,7.38
2022-12-13T02:59:01.301Z,7.90
2022-12-13T03:01:28.705Z,6.93
2022-12-13T03:03:43.363Z,6.70
2022-12-13T03:05:52.728Z,7.07
2022-12-13T03:08:06.013Z,6.72
2022-12-13T03:10:15.108Z,7.40
2022-12-13T03:12:26.800Z,7.93
2022-12-13T03:14:31.843Z,7.53
2022-12-13T03:16:37.854Z,7.25
2022-12-13T03:18:41.834Z,7.93
2022-12-13T03:20:46.079Z,6.95
2022-12-13T03:22:47.717Z,6.88
2022-12-13T03:24:49.342Z,7.35
2022-12-13T03:26:51.666Z,7.60
2022-12-13T03:28:53.977Z,6.85
2022-12-13T03:30:55.560Z,7.32
2022-12-13T03:32:57.301Z,7.13
2022-12-13T03:35:00.596Z,7.95
2022-12-13T03:37:02.582Z,7.25
2022-12-13T03:39:04.304Z,7.10
2022-12-13T03:41:08.848Z,8.23
2022-12-13T03:43:10.473Z,7.28
2022-12-13T03:45:13.930Z,7.13
2022-12-13T03:47:16.017Z,7.00
2022-12-13T03:51:21.056Z,7.68
2022-12-13T03:53:32.520Z,7.38
2022-12-13T03:55:35.885Z,8.15
2022-12-13T03:57:37.504Z,6.82
2022-12-13T03:59:39.037Z,7.13
2022-12-13T04:01:40.606Z,7.72
2022-12-13T04:03:44.531Z,7.28
2022-12-13T04:05:46.073Z,7.22
2022-12-13T04:07:49.344Z,7.13
2022-12-13T04:09:50.858Z,7.53
2022-12-13T04:11:52.396Z,7.20
2022-12-13T04:13:54.573Z,7.65
2022-12-13T04:15:59.914Z,6.63
2022-12-13T04:18:01.624Z,7.20
2022-12-13T04:20:12.194Z,7.50
2022-12-13T04:22:13.737Z,7.20
2022-12-13T04:24:16.884Z,8.43
2022-12-13T04:26:21.345Z,7.53
2022-12-13T04:28:23.270Z,7.22
2022-12-13T04:30:25.221Z,7.72
2022-12-13T04:34:33.402Z,8.38
2022-12-13T04:36:38.761Z,8.13
2022-12-13T04:38:40.282Z,7.45
2022-12-13T04:40:43.231Z,7.90
2022-12-13T04:42:45.270Z,6.93
2022-12-13T04:44:46.854Z,7.93
2022-12-13T04:46:48.475Z,7.28
2022-12-13T04:48:50.043Z,7.32
2022-12-13T04:50:51.572Z,7.50
2022-12-13T04:52:53.173Z,7.47
2022-12-13T04:54:55.532Z,6.95
2022-12-13T04:56:59.096Z,7.45
2022-12-13T04:59:03.997Z,7.75
2022-12-13T05:01:09.967Z,7.50
2022-12-13T05:03:11.594Z,7.07
2022-12-13T05:05:13.545Z,6.47
2022-12-13T05:07:15.314Z,7.90
2022-12-13T05:09:16.867Z,6.55
2022-12-13T05:11:22.975Z,7.15
2022-12-13T05:13:28.081Z,7.28
2022-12-13T05:15:30.061Z,6.75
2022-12-13T05:17:31.712Z,6.45
2022-12-13T05:19:33.340Z,7.13
2022-12-13T05:21:34.894Z,6.85
2022-12-13T05:23:37.017Z,7.13
2022-12-13T05:25:38.530Z,7.47
2022-12-13T05:27:43.136Z,6.57
2022-12-13T05:29:46.220Z,6.72
2022-12-13T05:31:47.802Z,7.43
2022-12-13T05:33:49.347Z,6.75
2022-12-13T05:35:56.202Z,7.65
2022-12-13T05:38:00.887Z,6.43
2022-12-13T05:40:02.496Z,7.30
2022-12-13T05:42:04.192Z,6.53
2022-12-13T05:44:05.710Z,7.10
2022-12-13T05:46:09.543Z,6.95
2022-12-13T05:48:14.571Z,6.35
2022-12-13T05:50:27.669Z,6.75
2022-12-13T05:52:30.443Z,7.10
2022-12-13T05:54:32.730Z,6.70
2022-12-13T05:56:34.281Z,6.93
2022-12-13T05:58:37.018Z,6.95
2022-12-13T06:00:43.473Z,6.85
2022-12-13T06:02:46.549Z,6.75
2022-12-13T06:04:48.246Z,6.75
2022-12-13T06:06:50.966Z,7.30
2022-12-13T06:08:52.702Z,17.17
2022-12-13T06:10:54.895Z,12.30
2022-12-13T06:13:21.756Z,7.75
2022-12-13T06:15:34.868Z,7.32
2022-12-13T06:17:36.821Z,7.63
2022-12-13T06:21:46.040Z,6.88
2022-12-13T06:23:48.119Z,7.45
2022-12-13T06:25:51.749Z,13.48
2022-12-13T06:27:53.404Z,7.28
2022-12-13T06:29:56.827Z,7.18
2022-12-13T06:32:03.506Z,7.70
2022-12-13T06:34:14.236Z,7.53
2022-12-13T06:36:18.194Z,7.60
2022-12-13T06:38:31.738Z,8.30
2022-12-13T06:40:33.877Z,8.40
2022-12-13T06:42:35.363Z,7.28
2022-12-13T06:44:37.010Z,7.28
2022-12-13T06:46:40.757Z,7.25
2022-12-13T06:48:42.661Z,7.50
2022-12-13T06:50:44.552Z,8.05
2022-12-13T06:52:47.522Z,6.78
2022-12-13T06:54:49.060Z,7.95
2022-12-13T06:56:50.619Z,7.65
2022-12-13T06:58:52.194Z,8.02
2022-12-13T07:01:01.474Z,7.88
2022-12-13T07:03:03.553Z,7.55
2022-12-13T07:07:07.111Z,7.45
2022-12-13T07:09:10.045Z,7.65
2022-12-13T07:11:14.063Z,7.38
2022-12-13T07:13:15.621Z,7.57
2022-12-13T07:15:17.579Z,7.13
2022-12-13T07:17:31.811Z,7.95
2022-12-13T07:19:36.158Z,8.07
2022-12-13T07:23:40.224Z,7.40
2022-12-13T07:25:50.433Z,7.70
2022-12-13T07:28:02.067Z,7.63
2022-12-13T07:30:05.401Z,8.40
2022-12-13T07:32:06.928Z,7.68
2022-12-13T07:34:11.695Z,7.45
2022-12-13T07:36:18.535Z,7.65
2022-12-13T07:38:20.052Z,7.72
2022-12-13T07:40:21.641Z,7.45
2022-12-13T07:42:24.532Z,7.63
2022-12-13T07:44:26.202Z,8.35
2022-12-13T07:46:32.673Z,7.53
2022-12-13T07:48:35.539Z,8.05
2022-12-13T07:50:38.049Z,6.50
2022-12-13T07:52:39.990Z,7.35
2022-12-13T07:56:42.867Z,7.45
2022-12-13T07:58:45.789Z,7.30
2022-12-13T08:00:47.449Z,7.35
2022-12-13T08:02:48.997Z,7.65
2022-12-13T08:04:54.493Z,7.30
2022-12-13T08:06:56.599Z,7.53
2022-12-13T08:08:58.177Z,7.30
2022-12-13T08:11:04.100Z,7.20
2022-12-13T08:13:05.890Z,6.25
2022-12-13T08:17:15.777Z,8.10
2022-12-13T08:19:17.307Z,7.75
2022-12-13T08:21:51.859Z,7.03
2022-12-13T08:23:40.358Z,6.95
2022-12-13T08:25:41.914Z,6.63
2022-12-13T08:27:43.436Z,6.68
2022-12-13T08:29:45.019Z,7.03
2022-12-13T08:31:48.035Z,6.60
2022-12-13T08:33:49.628Z,6.95
2022-12-13T08:35:51.273Z,7.13
2022-12-13T08:37:52.880Z,7.25
2022-12-13T08:39:54.520Z,7.03
2022-12-13T08:41:56.239Z,6.90
2022-12-13T08:43:57.784Z,7.10
2022-12-13T08:46:01.386Z,6.43
2022-12-13T08:48:05.022Z,7.10
2022-12-13T08:50:07.310Z,6.50
2022-12-13T08:52:08.875Z,5.90
2022-12-13T08:54:11.561Z,6.53
2022-12-13T08:56:13.510Z,6.82
2022-12-13T09:00:19.205Z,6.38
2022-12-13T09:02:20.911Z,7.05
2022-12-13T09:04:31.989Z,6.30
2022-12-13T09:06:33.866Z,7.10
2022-12-13T09:08:35.456Z,7.15
2022-12-13T09:10:38.159Z,7.68
2022-12-13T09:12:43.519Z,6.45
2022-12-13T09:14:46.103Z,7.45
2022-12-13T09:16:51.055Z,8.40
2022-12-13T09:18:55.469Z,6.68
2022-12-13T09:21:11.396Z,7.05
2022-12-13T09:23:23.346Z,7.95
2022-12-13T09:25:25.785Z,7.03
2022-12-13T09:27:28.559Z,7.57
2022-12-13T09:29:32.452Z,6.97
2022-12-13T09:31:34.198Z,6.82
2022-12-13T09:35:43.250Z,6.45
2022-12-13T09:37:46.541Z,7.13
2022-12-13T09:39:48.132Z,6.85
2022-12-13T09:42:01.401Z,6.93
2022-12-13T09:44:06.397Z,7.55
2022-12-13T09:46:34.411Z,6.63
2022-12-13T09:48:48.713Z,7.70
2022-12-13T09:50:58.515Z,8.27
2022-12-13T09:53:34.031Z,6.13
2022-12-13T09:55:41.749Z,6.78
2022-12-13T09:57:44.220Z,7.00
2022-12-13T09:59:47.340Z,6.90
2022-12-13T10:01:49.011Z,6.07
2022-12-13T10:05:57.669Z,6.32
2022-12-13T10:08:04.276Z,7.00
2022-12-13T10:10:11.488Z,6.82
2022-12-13T10:12:16.740Z,6.68
2022-12-13T10:14:27.683Z,6.70
2022-12-13T10:16:38.017Z,6.55
2022-12-13T10:18:41.369Z,5.82
2022-12-13T10:20:43.873Z,6.32
2022-12-13T10:23:01.640Z,6.00
2022-12-13T10:25:09.128Z,6.30
2022-12-13T10:27:13.840Z,5.90
2022-12-13T10:29:15.463Z,5.57
2022-12-13T10:31:18.591Z,5.50
2022-12-13T10:33:24.249Z,5.95
2022-12-13T10:35:28.626Z,5.55
2022-12-13T10:37:30.793Z,6.07
2022-12-13T10:39:40.125Z,5.28
2022-12-13T10:41:43.103Z,5.80
2022-12-13T10:43:44.614Z,5.88
2022-12-13T10:46:01.255Z,6.20
2022-12-13T10:48:04.621Z,4.68
2022-12-13T10:50:21.038Z,5.43
2022-12-13T10:52:31.556Z,5.05
2022-12-13T10:54:38.308Z,5.05
2022-12-13T10:56:46.503Z,5.45
2022-12-13T10:58:51.065Z,5.32
2022-12-13T11:01:07.598Z,5.00
2022-12-13T11:03:13.125Z,4.88
2022-12-13T11:05:33.037Z,5.75
2022-12-13T11:07:34.641Z,4.90
2022-12-13T11:09:38.737Z,5.10
2022-12-13T11:11:41.160Z,4.88
2022-12-13T11:15:55.023Z,4.65
2022-12-13T11:17:59.241Z,4.95
2022-12-13T11:20:04.461Z,5.38
2022-12-13T11:22:08.986Z,4.55
2022-12-13T11:24:23.139Z,4.82
2022-12-13T11:26:25.522Z,4.28
2022-12-13T11:28:43.187Z,5.28
2022-12-13T11:30:55.355Z,4.95
2022-12-13T11:33:14.418Z,5.05
2022-12-13T11:35:25.096Z,5.07
2022-12-13T11:37:31.900Z,4.78
2022-12-13T11:39:37.872Z,4.22
2022-12-13T11:41:48.627Z,4.63
2022-12-13T11:43:56.065Z,4.32
2022-12-13T11:46:02.602Z,4.03
2022-12-13T11:48:10.473Z,4.70
2022-12-13T11:50:32.651Z,4.57
2022-12-13T11:52:40.802Z,4.68
2022-12-13T11:54:50.430Z,4.30
2022-12-13T11:57:00.339Z,5.22
2022-12-13T11:59:20.352Z,4.72
2022-12-13T12:01:38.348Z,4.60
2022-12-13T12:05:49.135Z,3.83
2022-12-13T12:08:32.209Z,4.57
2022-12-13T12:10:33.488Z,4.10
2022-12-13T12:12:38.145Z,3.67
2022-12-13T12:14:47.564Z,4.70
2022-12-13T12:17:00.436Z,4.30
2022-12-13T12:19:02.330Z,4.72
2022-12-13T12:21:16.044Z,4.43
2022-12-13T12:23:31.377Z,4.13
2022-12-13T12:25:45.430Z,3.85
2022-12-13T12:27:56.159Z,4.18
2022-12-13T12:30:06.222Z,3.70
2022-12-13T12:32:21.420Z,3.70
2022-12-13T12:34:33.654Z,4.43
2022-12-13T12:36:50.429Z,4.18
2022-12-13T12:39:26.315Z,4.13
2022-12-13T12:41:38.189Z,4.03
2022-12-13T12:43:43.362Z,4.15
2022-12-13T12:45:58.710Z,4.60
2022-12-13T12:48:52.077Z,4.75
2022-12-13T12:50:43.110Z,4.68
2022-12-13T12:53:02.898Z,4.20
2022-12-13T12:55:12.011Z,5.13
2022-12-13T12:57:20.998Z,5.22
2022-12-13T12:59:29.862Z,5.30
2022-12-13T13:01:47.122Z,5.07
2022-12-13T13:03:52.533Z,5.57
2022-12-13T13:06:10.429Z,5.40
2022-12-13T13:08:17.877Z,5.85
2022-12-13T13:10:26.211Z,6.05
2022-12-13T13:12:32.607Z,6.15
2022-12-13T13:14:36.277Z,5.50
2022-12-13T13:16:39.434Z,5.80
2022-12-13T13:18:50.303Z,6.07
2022-12-13T13:21:42.354Z,5.75
2022-12-13T13:23:44.009Z,5.95
2022-12-13T13:26:16.395Z,5.13
2022-12-13T13:28:18.314Z,5.90
2022-12-13T13:30:22.378Z,5.93
2022-12-13T13:32:28.877Z,6.22
2022-12-13T13:34:34.290Z,6.25
2022-12-13T13:36:45.315Z,5.85
2022-12-13T13:38:51.300Z,6.55
2022-12-13T13:40:52.823Z,6.10
2022-12-13T13:43:13.428Z,6.10
2022-12-13T13:45:22.671Z,5.90
2022-12-13T13:47:39.196Z,6.38
2022-12-13T13:50:02.777Z,6.10
2022-12-13T13:52:25.411Z,6.07
2022-12-13T13:55:02.720Z,6.35
2022-12-13T13:58:07.192Z,5.13
2022-12-13T14:00:18.874Z,5.22
2022-12-13T14:02:48.889Z,5.65
2022-12-13T14:05:31.347Z,5.45
2022-12-13T14:08:06.328Z,5.93
2022-12-13T14:10:30.296Z,5.97
2022-12-13T14:13:23.998Z,6.28
2022-12-13T14:15:59.284Z,5.75
2022-12-13T14:18:36.281Z,5.90
2022-12-13T14:21:04.843Z,5.68
2022-12-13T14:23:15.123Z,5.90
2022-12-13T14:25:52.590Z,5.35
2022-12-13T14:28:00.354Z,6.03
2022-12-13T14:30:18.011Z,6.28
2022-12-13T14:32:27.698Z,6.75
2022-12-13T14:34:31.313Z,6.13
2022-12-13T14:36:36.582Z,6.47
2022-12-13T14:38:38.270Z,7.10
2022-12-13T14:40:48.908Z,7.03
2022-12-13T14:42:52.353Z,7.45
2022-12-13T14:44:53.926Z,7.15
2022-12-13T14:46:58.418Z,7.20
2022-12-13T14:49:01.635Z,6.80
2022-12-13T14:51:04.729Z,7.28
2022-12-13T14:53:07.766Z,6.88
2022-12-13T14:55:24.249Z,6.70
2022-12-13T14:57:29.464Z,7.20
2022-12-13T14:59:31.472Z,7.43
2022-12-13T15:01:34.667Z,7.32
2022-12-13T15:03:36.293Z,6.95
2022-12-13T15:05:45.683Z,6.30
2022-12-13T15:07:50.359Z,6.43
2022-12-13T15:09:55.931Z,7.30
2022-12-13T15:12:14.574Z,7.28
2022-12-13T15:14:18.540Z,7.05
2022-12-13T15:16:24.616Z,7.30
2022-12-13T15:18:27.107Z,6.93
2022-12-13T15:20:31.825Z,7.05
2022-12-13T15:22:33.651Z,6.28
2022-12-13T15:26:41.529Z,6.63
2022-12-13T15:28:47.070Z,6.72
2022-12-13T15:30:49.671Z,6.85
2022-12-13T15:33:06.911Z,6.53
2022-12-13T15:35:15.626Z,6.63
2022-12-13T15:37:29.366Z,6.57
2022-12-13T15:39:36.681Z,7.00
2022-12-13T15:41:46.902Z,7.30
2022-12-13T15:43:51.190Z,7.07
2022-12-13T15:45:53.243Z,7.63
2022-12-13T15:47:55.251Z,7.03
2022-12-13T15:49:58.462Z,6.97
2022-12-13T15:52:02.301Z,7.50
2022-12-13T15:54:07.193Z,7.50
2022-12-13T15:56:36.784Z,7.95
2022-12-13T15:58:39.717Z,7.78
2022-12-13T16:00:48.531Z,7.90
2022-12-13T16:02:55.176Z,8.48
2022-12-13T16:05:06.714Z,8.63
2022-12-13T16:07:22.334Z,7.72
2022-12-13T16:09:27.251Z,7.78
2022-12-13T16:11:32.405Z,7.85
2022-12-13T16:13:36.299Z,8.85
2022-12-13T16:15:49.847Z,8.48
2022-12-13T16:17:52.986Z,8.77
2022-12-13T16:19:56.544Z,8.27
2022-12-13T16:21:58.347Z,8.88
2022-12-13T16:26:07.139Z,8.30
2022-12-13T16:28:11.428Z,8.65
2022-12-13T16:30:22.398Z,8.85
2022-12-13T16:32:25.381Z,9.23
2022-12-13T16:34:26.938Z,8.52
2022-12-13T16:36:28.513Z,8.98
2022-12-13T16:38:30.317Z,10.00
2022-12-13T16:40:31.950Z,9.70
2022-12-13T16:42:34.151Z,9.80
2022-12-13T16:44:37.786Z,9.48
2022-12-13T16:47:12.766Z,9.25
2022-12-13T16:49:17.414Z,9.15
2022-12-13T16:51:19.341Z,9.00
2022-12-13T16:53:21.290Z,10.02
2022-12-13T16:55:23.229Z,9.18
2022-12-13T16:57:24.800Z,10.27
2022-12-13T16:59:27.552Z,9.10
2022-12-13T17:01:29.147Z,8.48
2022-12-13T17:03:30.807Z,8.82
2022-12-13T17:05:35.042Z,8.75
2022-12-13T17:07:36.601Z,8.85
2022-12-13T17:09:38.203Z,8.90
2022-12-13T17:11:39.890Z,8.02
2022-12-13T17:13:41.480Z,8.60
2022-12-13T17:15:43.178Z,9.05
2022-12-13T17:17:45.923Z,8.63
2022-12-13T17:19:47.516Z,8.52
2022-12-13T17:21:50.812Z,8.25
2022-12-13T17:23:54.500Z,8.75
2022-12-13T17:25:58.631Z,7.25
2022-12-13T17:28:00.623Z,7.97
2022-12-13T17:32:04.245Z,7.70
2022-12-13T17:34:05.772Z,8.23
2022-12-13T17:36:09.419Z,7.78
2022-12-13T17:38:12.341Z,8.02
2022-12-13T17:40:13.931Z,8.02
2022-12-13T17:42:15.565Z,8.52
2022-12-13T17:44:17.075Z,7.82
2022-12-13T17:46:18.924Z,8.82
2022-12-13T17:48:20.536Z,8.05
2022-12-13T17:50:22.165Z,8.20
2022-12-13T17:52:23.789Z,7.80
2022-12-13T17:54:27.297Z,8.45
2022-12-13T17:56:28.916Z,8.30
2022-12-13T17:58:30.562Z,8.18
2022-12-13T18:00:32.171Z,8.65
2022-12-13T18:02:33.735Z,8.63
2022-12-13T18:04:35.339Z,8.43
2022-12-13T18:06:36.914Z,8.98
2022-12-13T18:08:39.898Z,7.97
2022-12-13T18:10:42.909Z,8.18
2022-12-13T18:12:44.514Z,8.30
2022-12-13T18:14:46.140Z,8.32
2022-12-13T18:16:48.037Z,8.20
2022-12-13T18:18:55.359Z,8.40
2022-12-13T18:21:02.685Z,8.10
2022-12-13T18:23:04.405Z,7.93
2022-12-13T18:25:07.001Z,8.15
2022-12-13T18:27:09.897Z,7.60
2022-12-13T18:29:11.592Z,8.00
2022-12-13T18:31:15.372Z,8.02
2022-12-13T18:33:17.075Z,7.40
2022-12-13T18:35:18.871Z,7.97
2022-12-13T18:39:21.934Z,7.22
2022-12-13T18:43:26.945Z,7.53
2022-12-13T18:45:28.537Z,8.60
2022-12-13T18:47:30.255Z,8.00
2022-12-13T18:51:33.653Z,8.13
2022-12-13T18:53:37.941Z,7.75
2022-12-13T18:55:39.593Z,8.52
2022-12-13T18:57:41.413Z,8.27
2022-12-13T18:59:44.364Z,8.25
2022-12-13T19:03:58.252Z,8.60
2022-12-13T19:08:02.240Z,8.57
2022-12-13T19:10:04.525Z,8.38
2022-12-13T19:12:06.334Z,9.20
2022-12-13T19:14:07.965Z,8.93
2022-12-13T19:16:12.666Z,8.73
2022-12-13T19:18:14.399Z,9.32
2022-12-13T19:20:16.222Z,9.20
2022-12-13T19:22:17.905Z,9.10
2022-12-13T19:24:19.541Z,9.90
2022-12-13T19:26:21.080Z,8.43
2022-12-13T19:28:22.797Z,9.45
2022-12-13T19:32:27.182Z,9.88
2022-12-13T19:34:28.830Z,9.60
2022-12-13T19:36:31.359Z,10.10
2022-12-13T19:38:33.106Z,10.32
2022-12-13T19:42:36.142Z,8.60
2022-12-13T19:44:37.966Z,8.88
2022-12-13T19:48:42.912Z,8.25
2022-12-13T19:50:44.551Z,9.05
2022-12-13T19:52:46.192Z,8.98
2022-12-13T19:54:47.710Z,9.30
2022-12-13T19:56:49.272Z,9.45
2022-12-13T19:58:50.776Z,8.07
2022-12-13T20:00:52.384Z,8.55
2022-12-13T20:02:54.164Z,9.32
2022-12-13T20:06:58.538Z,8.10
2022-12-13T20:08:59.979Z,8.07
2022-12-13T20:11:04.947Z,8.50
2022-12-13T20:13:06.944Z,7.97
2022-12-13T20:15:09.339Z,8.32
2022-12-13T20:17:10.925Z,7.93
2022-12-13T20:19:14.878Z,8.43
2022-12-13T20:21:17.874Z,7.95
2022-12-13T20:23:19.586Z,7.97
2022-12-13T20:25:21.259Z,8.10
2022-12-13T20:27:22.899Z,7.82
2022-12-13T20:29:24.801Z,7.68
2022-12-13T20:31:30.217Z,8.05
2022-12-13T20:33:32.755Z,8.35
2022-12-13T20:35:34.324Z,8.18
2022-12-13T20:37:37.291Z,7.38
2022-12-13T20:39:38.861Z,8.13
2022-12-13T20:41:40.716Z,8.55
2022-12-13T20:43:42.476Z,9.25
2022-12-13T20:45:44.380Z,8.27
2022-12-13T20:47:45.928Z,8.75
2022-12-13T20:49:48.445Z,9.23
2022-12-13T20:51:50.774Z,8.77
2022-12-13T20:53:54.455Z,8.32
2022-12-13T20:55:56.438Z,8.60
2022-12-13T20:57:58.026Z,8.85
2022-12-13T20:59:59.571Z,11.93
2022-12-13T21:02:01.365Z,9.70
2022-12-13T21:04:04.591Z,9.60
2022-12-13T21:06:06.294Z,9.48
2022-12-13T21:10:10.878Z,9.18
2022-12-13T21:12:12.828Z,9.43
2022-12-13T21:14:21.156Z,9.52
2022-12-13T21:16:25.302Z,10.05
2022-12-13T21:18:26.974Z,9.40
2022-12-13T21:20:28.888Z,9.35
2022-12-13T21:22:30.481Z,9.25
2022-12-13T21:24:32.050Z,9.75
2022-12-13T21:26:38.187Z,9.13
2022-12-13T21:28:39.792Z,9.55
2022-12-13T21:30:41.421Z,9.40
2022-12-13T21:32:45.293Z,9.77
2022-12-13T21:34:50.154Z,9.38
2022-12-13T21:38:55.246Z,8.65
2022-12-13T21:40:56.981Z,8.52
2022-12-13T21:43:01.747Z,9.70
2022-12-13T21:45:03.711Z,8.95
2022-12-13T21:47:12.638Z,9.13
2022-12-13T21:49:17.471Z,9.27
2022-12-13T21:51:34.492Z,9.25
2022-12-13T21:53:36.316Z,9.48
2022-12-13T21:55:42.503Z,10.55
2022-12-13T21:57:44.500Z,9.82
2022-12-13T21:59:50.523Z,11.23
2022-12-13T22:01:56.211Z,10.85
2022-12-13T22:03:59.750Z,11.02
2022-12-13T22:06:06.951Z,10.02
2022-12-13T22:08:08.702Z,10.57
2022-12-13T22:10:10.390Z,10.13
2022-12-13T22:12:19.974Z,10.75
2022-12-13T22:14:24.160Z,9.82
2022-12-13T22:16:27.441Z,10.13
2022-12-13T22:18:29.701Z,10.05
2022-12-13T22:20:32.759Z,10.05
2022-12-13T22:22:36.782Z,9.75
2022-12-13T22:24:42.169Z,9.20
2022-12-13T22:26:44.015Z,9.57
2022-12-13T22:30:54.922Z,8.90
2022-12-13T22:32:58.171Z,9.15
2022-12-13T22:35:02.885Z,9.40
2022-12-13T22:37:04.475Z,9.18
2022-12-13T22:39:06.429Z,8.55
2022-12-13T22:41:08.484Z,9.00
2022-12-13T22:43:18.915Z,8.73
2022-12-13T22:45:22.039Z,9.40
2022-12-13T22:47:26.750Z,9.35
2022-12-13T22:49:29.758Z,9.00
2022-12-13T22:51:31.603Z,10.05
2022-12-13T22:55:34.483Z,8.38
2022-12-13T22:57:35.987Z,8.43
2022-12-13T22:59:37.541Z,8.38
2022-12-13T23:01:41.208Z,8.23
2022-12-13T23:03:43.701Z,8.85
2022-12-13T23:05:52.481Z,7.82
2022-12-13T23:07:54.225Z,8.23
2022-12-13T23:09:57.930Z,8.93
2022-12-13T23:11:59.597Z,8.15
2022-12-13T23:14:04.142Z,8.13
2022-12-13T23:16:08.418Z,8.82
2022-12-13T23:18:09.995Z,9.15
2022-12-13T23:20:11.952Z,8.68
2022-12-13T23:22:16.931Z,8.00
2022-12-13T23:24:18.634Z,8.60
2022-12-13T23:26:22.620Z,8.40
2022-12-13T23:28:24.507Z,9.57
2022-12-13T23:30:26.178Z,9.00
2022-12-13T23:32:27.766Z,8.70
2022-12-13T23:34:29.434Z,8.30
2022-12-13T23:36:31.371Z,8.27
2022-12-13T23:38:34.791Z,8.05
2022-12-13T23:40:36.414Z,8.05
2022-12-13T23:42:40.396Z,8.32
2022-12-13T23:44:41.956Z,8.35
2022-12-13T23:46:48.261Z,9.32
2022-12-13T23:48:53.514Z,7.35
2022-12-13T23:50:57.099Z,8.20
2022-12-13T23:52:58.639Z,8.20
2022-12-13T23:55:01.555Z,9.48
2022-12-13T23:57:03.231Z,8.68
2022-12-13T23:59:04.786Z,8.88
